Time;durP1;ratioP1;P1;durP2;ratioP2;P2;SDS_P1;SDS_P2;PMS_P1;PMS_P2;Temp;Humidity;BMP_temperature;BMP_pressure;BME280_temperature;BME280_humidity;BME280_pressure;Samples;Min_cycle;Max_cycle;Signal;HPM_P1;HPM_P2
2023/05/24 00:00:22;;;;;;;16.70;3.17;;;12.30;51.10;;;;;;5011666;28;20050;-46
2023/05/24 00:02:49;;;;;;;14.20;3.10;;;12.20;51.20;;;;;;5018942;28;20053;-42
2023/05/24 00:05:17;;;;;;;15.02;3.30;;;12.20;51.20;;;;;;5017240;28;20536;-46
2023/05/24 00:07:44;;;;;;;19.88;3.22;;;12.20;51.20;;;;;;5017110;28;20505;-45
2023/05/24 00:10:12;;;;;;;14.57;2.92;;;12.10;51.10;;;;;;5013721;28;20065;-46
2023/05/24 00:12:39;;;;;;;14.63;3.17;;;12.10;51.10;;;;;;5015018;28;20057;-46
2023/05/24 00:15:09;;;;;;;14.18;2.75;;;12.10;51.10;;;;;;5015350;28;20062;-46
2023/05/24 00:17:39;;;;;;;17.52;2.85;;;12.00;51.10;;;;;;5011302;28;20061;-45
2023/05/24 00:20:10;;;;;;;22.40;3.63;;;12.00;51.00;;;;;;5017669;28;20054;-41
2023/05/24 00:22:38;;;;;;;18.27;3.30;;;12.00;51.00;;;;;;5015989;28;20497;-43
2023/05/24 00:25:05;;;;;;;23.95;4.00;;;12.00;51.00;;;;;;5013644;28;20053;-47
2023/05/24 00:27:35;;;;;;;16.73;2.97;;;12.00;50.90;;;;;;5015839;28;20493;-45
2023/05/24 00:30:03;;;;;;;13.43;2.88;;;12.00;50.90;;;;;;5014338;28;20073;-43
2023/05/24 00:32:32;;;;;;;13.70;2.70;;;12.00;50.90;;;;;;5016331;28;20046;-45
2023/05/24 00:34:59;;;;;;;15.63;2.70;;;11.90;50.80;;;;;;5015938;28;20049;-46
2023/05/24 00:37:28;;;;;;;22.02;3.63;;;11.90;50.80;;;;;;5014753;28;20060;-45
2023/05/24 00:39:55;;;;;;;16.35;2.55;;;11.90;50.90;;;;;;5018420;28;20505;-46
2023/05/24 00:42:22;;;;;;;19.85;3.10;;;11.90;50.90;;;;;;5022397;28;20076;-43
2023/05/24 00:44:49;;;;;;;23.58;3.03;;;11.80;50.70;;;;;;5020897;28;20057;-46
2023/05/24 00:47:17;;;;;;;14.10;2.50;;;11.80;50.70;;;;;;5015794;28;20058;-40
2023/05/24 00:49:46;;;;;;;22.88;4.57;;;11.80;50.90;;;;;;5019839;28;20054;-48
2023/05/24 00:52:13;;;;;;;19.73;3.78;;;11.70;50.90;;;;;;5014714;28;20049;-46
2023/05/24 00:54:40;;;;;;;14.77;2.60;;;11.70;51.00;;;;;;5021281;28;20045;-45
2023/05/24 00:57:08;;;;;;;16.50;2.95;;;11.70;51.10;;;;;;5020035;28;20088;-43
2023/05/24 00:59:36;;;;;;;16.30;3.03;;;11.70;51.10;;;;;;5020948;28;20059;-45
2023/05/24 01:02:03;;;;;;;17.52;3.08;;;11.60;51.10;;;;;;5016500;28;20060;-45
2023/05/24 01:04:32;;;;;;;17.98;3.00;;;11.60;51.10;;;;;;5011039;23;20050;-39
2023/05/24 01:07:11;;;;;;;18.90;3.22;;;11.60;51.10;;;;;;4985244;28;20057;-37
2023/05/24 01:09:50;;;;;;;18.85;3.47;;;11.50;51.20;;;;;;4985286;28;20418;-37
2023/05/24 01:12:26;;;;;;;16.27;2.80;;;11.50;51.30;;;;;;4984050;28;20051;-39
2023/05/24 01:15:05;;;;;;;19.48;2.70;;;11.50;51.50;;;;;;4984872;28;20047;-39
2023/05/24 01:17:38;;;;;;;11.20;2.63;;;11.40;51.40;;;;;;4984264;28;20054;-37
2023/05/24 01:20:09;;;;;;;19.95;2.75;;;11.40;51.40;;;;;;4986821;28;20050;-37
2023/05/24 01:23:18;;;;;;;14.00;2.35;;;11.40;51.40;;;;;;4985679;28;20117;-38
2023/05/24 01:25:50;;;;;;;16.38;2.65;;;11.30;51.40;;;;;;4958162;28;20081;-37
2023/05/24 01:28:20;;;;;;;19.50;3.35;;;11.30;51.50;;;;;;4984786;28;20061;-37
2023/05/24 01:30:47;;;;;;;9.25;2.03;;;11.30;51.50;;;;;;4983422;28;20057;-43
2023/05/24 01:33:15;;;;;;;16.75;2.85;;;11.30;51.60;;;;;;4984701;28;20403;-42
2023/05/24 01:35:43;;;;;;;9.32;2.30;;;11.30;51.60;;;;;;4984411;28;20050;-39
2023/05/24 01:38:10;;;;;;;13.82;2.67;;;11.30;51.60;;;;;;4985635;28;20057;-36
2023/05/24 01:40:40;;;;;;;13.38;2.47;;;11.20;51.70;;;;;;4985642;28;20058;-40
2023/05/24 01:43:17;;;;;;;20.42;2.95;;;11.20;51.70;;;;;;4984272;28;20379;-37
2023/05/24 01:45:53;;;;;;;11.05;2.50;;;11.20;52.30;;;;;;4983524;28;20501;-37
2023/05/24 01:48:31;;;;;;;15.70;3.30;;;11.20;51.80;;;;;;4985018;28;20065;-38
2023/05/24 01:50:59;;;;;;;16.58;2.83;;;11.20;51.90;;;;;;4983297;28;20065;-42
2023/05/24 01:53:32;;;;;;;13.48;2.70;;;11.20;51.90;;;;;;4984881;28;20054;-37
2023/05/24 01:56:02;;;;;;;17.10;3.35;;;11.20;52.00;;;;;;4984609;28;20061;-40
2023/05/24 01:58:30;;;;;;;11.00;2.70;;;11.20;52.00;;;;;;4984389;28;20073;-38
2023/05/24 02:01:00;;;;;;;9.60;2.85;;;11.20;52.10;;;;;;4982883;28;20710;-38
2023/05/24 02:03:27;;;;;;;13.93;2.92;;;11.20;52.10;;;;;;4977226;28;20058;-39
2023/05/24 02:09:17;;;;;;;16.30;3.08;;;11.10;52.20;;;;;;4964593;28;20042;-36
2023/05/24 02:11:44;;;;;;;14.55;2.40;;;11.10;52.10;;;;;;4965336;28;20494;-38
2023/05/24 02:14:12;;;;;;;17.08;2.72;;;11.10;52.20;;;;;;4965646;28;20046;-37
2023/05/24 02:16:41;;;;;;;11.25;2.60;;;11.00;52.30;;;;;;4964921;28;20509;-38
2023/05/24 02:19:08;;;;;;;13.48;3.08;;;11.00;52.40;;;;;;4964500;28;20053;-42
2023/05/24 02:21:35;;;;;;;21.50;3.60;;;11.00;52.40;;;;;;4965251;28;20050;-37
2023/05/24 02:24:03;;;;;;;16.88;3.20;;;11.00;52.50;;;;;;4964503;28;20058;-39
2023/05/24 02:26:30;;;;;;;12.13;2.60;;;10.90;52.50;;;;;;4965529;28;20074;-38
2023/05/24 02:28:57;;;;;;;16.42;2.80;;;10.90;52.70;;;;;;4964120;28;20066;-40
2023/05/24 02:31:27;;;;;;;15.77;2.88;;;10.80;52.70;;;;;;4965523;28;20062;-38
2023/05/24 02:33:56;;;;;;;16.83;2.67;;;10.80;52.80;;;;;;4965095;28;20414;-39
2023/05/24 02:36:23;;;;;;;10.38;2.25;;;10.80;52.80;;;;;;4962160;28;20054;-38
2023/05/24 02:38:51;;;;;;;9.68;2.40;;;10.80;52.90;;;;;;4964017;28;20074;-38
2023/05/24 02:41:18;;;;;;;16.15;2.70;;;10.80;52.90;;;;;;4963390;28;20047;-39
2023/05/24 02:43:46;;;;;;;15.68;3.17;;;10.80;52.90;;;;;;4963034;28;20062;-41
2023/05/24 02:46:14;;;;;;;10.63;2.92;;;10.70;52.90;;;;;;4964720;28;20671;-38
2023/05/24 02:48:41;;;;;;;12.02;2.33;;;10.70;53.00;;;;;;4965273;28;20054;-39
2023/05/24 02:51:10;;;;;;;7.22;2.40;;;10.70;53.00;;;;;;4964128;28;20695;-43
2023/05/24 02:53:37;;;;;;;13.43;2.67;;;10.70;53.00;;;;;;4964323;28;20395;-37
2023/05/24 02:56:06;;;;;;;21.77;3.10;;;10.70;53.00;;;;;;4966381;28;20418;-38
2023/05/24 02:58:33;;;;;;;13.00;2.50;;;10.70;53.10;;;;;;4964848;28;20069;-37
2023/05/24 03:01:01;;;;;;;17.02;3.13;;;10.70;53.20;;;;;;4962630;28;20081;-37
2023/05/24 03:03:29;;;;;;;12.95;2.38;;;10.70;53.10;;;;;;4965032;28;20066;-37
2023/05/24 03:05:56;;;;;;;14.38;2.80;;;10.70;53.20;;;;;;4964975;28;20394;-41
2023/05/24 03:08:25;;;;;;;10.80;2.70;;;10.70;53.30;;;;;;4964354;28;20069;-38
2023/05/24 03:10:52;;;;;;;19.05;3.17;;;10.70;53.30;;;;;;4963263;28;20440;-37
2023/05/24 03:13:19;;;;;;;10.80;2.58;;;10.70;53.30;;;;;;4965377;28;20525;-36
2023/05/24 03:16:11;;;;;;;12.32;2.50;;;10.70;53.30;;;;;;4962934;28;20059;-37
2023/05/24 03:18:38;;;;;;;17.13;3.05;;;10.70;53.30;;;;;;4964592;28;20058;-38
2023/05/24 03:21:06;;;;;;;15.77;3.00;;;10.70;53.20;;;;;;4965784;28;20061;-36
2023/05/24 03:23:35;;;;;;;13.85;2.35;;;10.70;53.30;;;;;;4963488;28;20491;-36
2023/05/24 03:26:02;;;;;;;9.32;2.40;;;10.60;53.30;;;;;;4963568;28;20062;-36
2023/05/24 03:28:29;;;;;;;16.73;2.92;;;10.60;53.30;;;;;;4964180;28;20065;-37
2023/05/24 03:30:56;;;;;;;10.40;2.67;;;10.60;53.30;;;;;;4963363;28;20066;-43
2023/05/24 03:33:24;;;;;;;12.45;2.20;;;10.60;53.30;;;;;;4964176;28;20065;-40
2023/05/24 03:35:51;;;;;;;10.95;3.10;;;10.60;53.30;;;;;;4965634;28;20047;-40
2023/05/24 03:38:18;;;;;;;16.23;2.63;;;10.60;53.50;;;;;;4964108;28;20065;-37
2023/05/24 03:40:47;;;;;;;8.80;2.60;;;10.60;53.50;;;;;;4963642;28;20058;-36
2023/05/24 03:43:14;;;;;;;6.45;1.83;;;10.60;53.50;;;;;;4960348;28;20058;-39
2023/05/24 03:45:41;;;;;;;8.55;2.00;;;10.60;53.50;;;;;;4982127;28;20398;-38
2023/05/24 03:48:08;;;;;;;6.80;1.95;;;10.50;53.50;;;;;;4983362;28;20060;-38
2023/05/24 03:50:36;;;;;;;10.30;2.35;;;10.50;53.50;;;;;;4984067;28;20046;-37
2023/05/24 03:53:03;;;;;;;10.18;2.70;;;10.50;53.60;;;;;;4983456;28;20054;-37
2023/05/24 03:55:30;;;;;;;8.40;2.30;;;10.50;53.60;;;;;;4984197;28;20060;-38
2023/05/24 03:57:58;;;;;;;14.13;2.72;;;10.50;53.70;;;;;;4982577;28;20046;-42
2023/05/24 04:00:26;;;;;;;11.57;2.00;;;10.50;53.70;;;;;;4982164;28;20058;-39
2023/05/24 04:02:54;;;;;;;8.00;2.35;;;10.50;53.70;;;;;;4983107;28;20050;-37
2023/05/24 04:05:25;;;;;;;7.53;1.60;;;10.50;53.70;;;;;;4984185;28;20589;-39
2023/05/24 04:07:53;;;;;;;7.10;1.92;;;10.50;53.70;;;;;;4982702;28;20054;-38
2023/05/24 04:10:20;;;;;;;13.98;2.67;;;10.50;53.80;;;;;;4983907;28;20494;-37
2023/05/24 04:12:47;;;;;;;16.67;3.03;;;10.50;53.80;;;;;;4984676;28;20085;-37
2023/05/24 04:15:16;;;;;;;8.65;2.25;;;10.50;53.90;;;;;;4984675;28;20397;-37
2023/05/24 04:17:44;;;;;;;5.00;2.05;;;10.50;53.80;;;;;;4984949;28;20061;-38
2023/05/24 04:20:12;;;;;;;5.90;2.03;;;10.60;53.90;;;;;;4987687;28;20065;-38
2023/05/24 04:22:40;;;;;;;10.07;2.92;;;10.50;53.90;;;;;;4987694;28;20060;-40
2023/05/24 04:25:08;;;;;;;10.73;2.40;;;10.60;54.00;;;;;;4986143;28;20047;-40
2023/05/24 04:27:36;;;;;;;7.63;2.65;;;10.60;54.00;;;;;;4987109;28;20517;-37
2023/05/24 04:30:04;;;;;;;8.05;2.22;;;10.60;53.90;;;;;;4988129;28;20050;-38
2023/05/24 04:32:32;;;;;;;8.25;2.03;;;10.60;53.90;;;;;;4985973;28;20046;-40
2023/05/24 04:35:01;;;;;;;16.08;3.53;;;10.60;54.00;;;;;;4985584;28;20047;-37
2023/05/24 04:37:30;;;;;;;11.90;2.83;;;10.60;54.20;;;;;;4986611;28;20058;-38
2023/05/24 04:39:57;;;;;;;11.77;3.17;;;10.60;54.30;;;;;;4986451;28;20054;-37
2023/05/24 04:42:26;;;;;;;17.77;3.63;;;10.60;54.30;;;;;;4986145;28;20069;-39
2023/05/24 04:44:53;;;;;;;12.13;3.28;;;10.60;54.40;;;;;;4986821;28;20065;-40
2023/05/24 04:47:20;;;;;;;22.00;3.78;;;10.60;54.60;;;;;;4985819;28;20061;-37
2023/05/24 04:49:49;;;;;;;16.80;3.25;;;10.50;54.90;;;;;;4986382;28;21648;-38
2023/05/24 04:52:16;;;;;;;14.48;3.17;;;10.50;55.00;;;;;;4986752;28;20548;-38
2023/05/24 04:54:44;;;;;;;23.88;3.90;;;10.50;55.10;;;;;;4986828;28;20069;-37
2023/05/24 04:57:11;;;;;;;14.63;3.53;;;10.40;55.20;;;;;;4985262;28;20072;-37
2023/05/24 04:59:38;;;;;;;11.23;3.20;;;10.40;55.30;;;;;;4985700;28;20061;-39
2023/05/24 05:02:05;;;;;;;13.02;3.80;;;10.30;55.30;;;;;;4980308;28;20061;-39
2023/05/24 05:04:33;;;;;;;13.75;3.70;;;10.30;55.50;;;;;;4985026;28;20066;-42
2023/05/24 05:07:02;;;;;;;15.88;4.38;;;10.30;55.70;;;;;;4984057;28;20042;-41
2023/05/24 05:09:29;;;;;;;14.52;3.38;;;10.30;56.00;;;;;;4984014;28;20054;-38
2023/05/24 05:11:57;;;;;;;14.75;3.53;;;10.20;56.20;;;;;;4986798;28;20054;-35
2023/05/24 05:14:24;;;;;;;17.85;3.35;;;10.20;56.30;;;;;;4983647;28;20058;-38
2023/05/24 05:16:51;;;;;;;11.55;3.25;;;10.20;56.40;;;;;;4984306;28;20394;-36
2023/05/24 05:19:18;;;;;;;15.35;3.47;;;10.20;56.50;;;;;;4985972;28;20070;-37
2023/05/24 05:21:45;;;;;;;13.65;2.97;;;10.20;56.40;;;;;;4986605;28;20050;-37
2023/05/24 05:24:15;;;;;;;16.02;3.63;;;10.20;56.50;;;;;;4985230;28;20533;-37
2023/05/24 05:26:42;;;;;;;13.27;3.25;;;10.20;56.60;;;;;;4984992;28;20078;-38
2023/05/24 05:29:09;;;;;;;16.02;3.70;;;10.20;56.70;;;;;;4984759;28;20064;-38
2023/05/24 05:31:38;;;;;;;22.15;3.83;;;10.20;56.80;;;;;;4983070;28;20058;-38
2023/05/24 05:34:08;;;;;;;17.25;4.32;;;10.20;56.80;;;;;;4985944;28;20379;-38
2023/05/24 05:36:39;;;;;;;18.45;4.13;;;10.20;57.00;;;;;;4984697;28;20049;-40
2023/05/24 05:39:08;;;;;;;19.20;3.63;;;10.20;57.00;;;;;;4985509;28;20058;-39
2023/05/24 05:41:39;;;;;;;15.18;3.03;;;10.20;57.10;;;;;;4986416;28;20054;-39
2023/05/24 05:44:06;;;;;;;14.80;3.72;;;10.30;57.20;;;;;;4986067;28;20077;-39
2023/05/24 05:46:33;;;;;;;16.50;3.70;;;10.30;57.30;;;;;;4982863;28;20449;-41
2023/05/24 05:49:01;;;;;;;14.50;4.00;;;10.30;57.40;;;;;;4985615;28;20050;-40
2023/05/24 05:51:28;;;;;;;17.45;3.53;;;10.40;57.60;;;;;;4984722;28;20058;-39
2023/05/24 05:53:55;;;;;;;16.85;3.55;;;10.40;57.40;;;;;;4985860;28;20061;-39
2023/05/24 05:56:22;;;;;;;14.68;3.20;;;10.50;57.30;;;;;;4986209;28;20054;-40
2023/05/24 05:58:51;;;;;;;14.10;3.00;;;10.50;57.20;;;;;;4985747;28;20509;-35
2023/05/24 06:01:18;;;;;;;16.95;4.03;;;10.50;57.20;;;;;;4983687;28;20058;-38
2023/05/24 06:03:45;;;;;;;21.50;3.35;;;10.60;57.10;;;;;;4984263;28;20418;-38
2023/05/24 06:06:12;;;;;;;17.77;3.15;;;10.70;57.00;;;;;;4983836;28;20057;-37
2023/05/24 06:08:39;;;;;;;13.32;3.15;;;10.70;56.90;;;;;;4985690;28;20062;-37
2023/05/24 06:11:07;;;;;;;17.48;3.33;;;10.70;56.90;;;;;;4984378;28;20050;-38
2023/05/24 06:13:34;;;;;;;22.88;5.03;;;10.80;56.90;;;;;;4985045;28;20065;-38
2023/05/24 06:16:03;;;;;;;18.83;4.03;;;10.80;56.90;;;;;;4982940;28;20053;-37
2023/05/24 06:18:31;;;;;;;19.85;3.45;;;10.90;57.00;;;;;;4984186;28;20144;-39
2023/05/24 06:20:58;;;;;;;17.58;4.20;;;11.00;57.00;;;;;;4982930;28;20050;-38
2023/05/24 06:23:25;;;;;;;21.27;3.95;;;11.00;56.80;;;;;;4983785;28;20506;-40
2023/05/24 06:25:52;;;;;;;29.60;5.53;;;11.00;56.90;;;;;;4983819;28;20053;-37
2023/05/24 06:28:20;;;;;;;31.83;5.00;;;11.10;56.80;;;;;;4984774;28;20062;-39
2023/05/24 06:30:47;;;;;;;19.30;4.70;;;11.10;56.70;;;;;;4982951;28;20053;-40
2023/05/24 06:33:16;;;;;;;30.50;4.80;;;11.20;56.80;;;;;;4984513;28;20058;-39
2023/05/24 06:35:43;;;;;;;28.60;5.88;;;11.20;56.80;;;;;;4984213;28;20414;-39
2023/05/24 06:38:10;;;;;;;32.97;5.20;;;11.30;56.80;;;;;;4982900;28;20065;-36
2023/05/24 06:40:37;;;;;;;27.48;5.28;;;11.30;56.70;;;;;;4983589;28;20065;-37
2023/05/24 06:43:05;;;;;;;21.75;4.82;;;11.40;56.70;;;;;;4984538;28;20529;-38
2023/05/24 06:45:32;;;;;;;28.05;5.43;;;11.40;56.60;;;;;;4981541;28;20414;-38
2023/05/24 06:47:59;;;;;;;24.60;5.05;;;11.50;56.60;;;;;;4984362;28;20064;-42
2023/05/24 06:50:27;;;;;;;19.58;4.10;;;11.60;56.60;;;;;;4985180;28;20438;-37
2023/05/24 06:52:55;;;;;;;31.55;4.82;;;11.70;56.60;;;;;;4983063;28;20050;-44
2023/05/24 06:55:22;;;;;;;19.52;4.55;;;11.80;56.70;;;;;;4984072;28;20061;-36
2023/05/24 06:57:49;;;;;;;17.15;4.43;;;11.90;56.50;;;;;;4983765;28;20055;-36
2023/05/24 07:00:17;;;;;;;29.60;6.43;;;12.00;56.60;;;;;;4983383;28;20070;-39
2023/05/24 07:02:45;;;;;;;28.27;5.05;;;12.10;56.30;;;;;;4984237;28;20391;-36
2023/05/24 07:05:12;;;;;;;17.15;4.00;;;12.20;55.60;;;;;;4982409;28;20049;-38
2023/05/24 07:07:42;;;;;;;21.05;4.30;;;12.30;55.30;;;;;;4981539;28;20082;-38
2023/05/24 07:10:10;;;;;;;18.73;4.45;;;12.30;55.50;;;;;;4983513;28;20061;-35
2023/05/24 07:12:38;;;;;;;19.67;4.82;;;12.40;55.70;;;;;;4982402;28;20065;-38
2023/05/24 07:15:07;;;;;;;24.42;5.45;;;12.40;55.80;;;;;;4983315;28;20494;-40
2023/05/24 07:17:34;;;;;;;26.38;4.90;;;12.50;55.40;;;;;;4981614;28;20054;-39
2023/05/24 07:20:05;;;;;;;23.67;5.40;;;12.60;55.00;;;;;;4984840;28;20054;-39
2023/05/24 07:22:32;;;;;;;33.50;6.10;;;12.60;53.90;;;;;;4983574;28;20057;-40
2023/05/24 07:25:01;;;;;;;28.85;5.85;;;12.60;53.70;;;;;;4983919;28;20058;-39
2023/05/24 07:27:28;;;;;;;35.22;6.68;;;12.60;53.70;;;;;;4984438;28;20054;-37
2023/05/24 07:29:55;;;;;;;35.97;6.00;;;12.60;53.60;;;;;;4982965;28;20061;-39
2023/05/24 07:32:23;;;;;;;25.75;5.28;;;12.60;53.80;;;;;;4981443;28;20063;-40
2023/05/24 07:34:50;;;;;;;28.88;5.55;;;12.60;54.10;;;;;;4980937;28;20062;-37
2023/05/24 07:37:22;;;;;;;29.70;6.13;;;12.60;54.50;;;;;;4984530;28;20046;-39
2023/05/24 07:39:53;;;;;;;40.00;6.55;;;12.60;54.70;;;;;;4983211;28;20080;-37
2023/05/24 07:42:23;;;;;;;30.95;5.90;;;12.70;54.70;;;;;;4989881;28;20497;-37
2023/05/24 07:44:58;;;;;;;31.65;4.90;;;12.70;53.90;;;;;;4988415;28;20061;-36
2023/05/24 07:47:30;;;;;;;35.30;5.43;;;12.80;54.10;;;;;;4987636;28;20050;-37
2023/05/24 07:50:01;;;;;;;20.30;5.55;;;12.90;54.00;;;;;;4988349;28;20512;-37
2023/05/24 07:52:31;;;;;;;23.00;5.75;;;12.90;54.00;;;;;;4992586;28;20054;-37
2023/05/24 07:55:00;;;;;;;22.60;4.85;;;13.00;54.00;;;;;;4992394;28;20395;-36
2023/05/24 07:57:33;;;;;;;19.60;4.88;;;13.10;53.90;;;;;;4994259;28;20058;-36
2023/05/24 08:00:13;;;;;;;29.67;5.45;;;13.20;53.90;;;;;;4993205;28;20057;-37
2023/05/24 08:02:41;;;;;;;23.33;4.88;;;13.30;52.60;;;;;;4988263;28;20058;-36
2023/05/24 08:05:09;;;;;;;18.77;4.55;;;13.40;51.80;;;;;;4985960;28;20050;-38
2023/05/24 08:07:37;;;;;;;33.67;5.68;;;13.40;51.40;;;;;;4987123;28;20430;-36
2023/05/24 08:10:05;;;;;;;19.27;4.32;;;13.50;51.10;;;;;;4988569;28;20592;-37
2023/05/24 08:12:34;;;;;;;17.05;4.68;;;13.50;50.90;;;;;;4986491;28;20054;-39
2023/05/24 08:15:01;;;;;;;25.15;4.60;;;13.60;51.20;;;;;;4985206;28;20422;-38
2023/05/24 08:17:29;;;;;;;27.65;5.53;;;13.60;51.50;;;;;;4985916;28;20057;-36
2023/05/24 08:19:56;;;;;;;21.55;5.60;;;13.70;51.30;;;;;;4985253;28;20057;-39
2023/05/24 08:22:24;;;;;;;23.98;5.07;;;13.80;51.40;;;;;;4987375;28;20061;-42
2023/05/24 08:24:52;;;;;;;22.92;5.18;;;13.90;51.60;;;;;;4987468;28;20422;-37
2023/05/24 08:27:20;;;;;;;21.10;4.78;;;14.00;51.10;;;;;;4985450;28;20053;-37
2023/05/24 08:29:48;;;;;;;26.23;4.93;;;14.00;49.50;;;;;;4986529;28;20057;-36
2023/05/24 08:32:16;;;;;;;22.52;4.30;;;14.10;49.30;;;;;;4984347;28;20054;-36
2023/05/24 08:34:44;;;;;;;23.00;4.32;;;14.10;48.80;;;;;;4988415;28;20408;-41
2023/05/24 08:37:14;;;;;;;16.52;3.83;;;14.20;49.00;;;;;;4986447;28;20042;-41
2023/05/24 08:39:41;;;;;;;22.63;5.05;;;14.20;49.60;;;;;;4985655;28;20058;-38
2023/05/24 08:42:09;;;;;;;15.90;4.22;;;14.30;49.60;;;;;;4987558;28;20050;-37
2023/05/24 08:44:41;;;;;;;27.55;4.95;;;14.40;49.50;;;;;;4987602;28;20054;-37
2023/05/24 08:47:10;;;;;;;21.20;4.00;;;14.40;49.10;;;;;;4983811;28;20061;-37
2023/05/24 08:49:38;;;;;;;18.55;3.95;;;14.50;49.60;;;;;;4984845;28;20057;-40
2023/05/24 08:52:07;;;;;;;20.63;4.10;;;14.50;49.70;;;;;;4987045;28;20054;-37
2023/05/24 08:54:36;;;;;;;20.55;4.32;;;14.60;49.20;;;;;;4985271;28;20065;-37
2023/05/24 08:57:04;;;;;;;18.75;4.78;;;14.60;48.40;;;;;;4985217;28;20050;-36
2023/05/24 08:59:31;;;;;;;12.55;4.20;;;14.60;48.60;;;;;;4987416;28;20058;-39
2023/05/24 09:01:59;;;;;;;20.38;4.25;;;14.60;48.00;;;;;;4984225;28;20049;-38
2023/05/24 09:04:29;;;;;;;20.23;5.07;;;14.60;48.30;;;;;;4986146;28;20054;-37
2023/05/24 09:06:57;;;;;;;21.63;4.38;;;14.60;48.50;;;;;;4986333;28;20050;-36
2023/05/24 09:09:27;;;;;;;22.08;4.15;;;14.70;47.90;;;;;;4985268;28;20070;-39
2023/05/24 09:11:59;;;;;;;16.88;3.85;;;14.70;47.70;;;;;;4986134;28;20061;-37
2023/05/24 09:14:26;;;;;;;21.90;4.40;;;14.70;47.80;;;;;;4984775;28;20058;-36
2023/05/24 09:16:54;;;;;;;21.85;4.40;;;14.80;47.80;;;;;;4983507;28;20433;-39
2023/05/24 09:19:21;;;;;;;16.23;4.03;;;14.80;47.60;;;;;;4987985;28;20057;-39
2023/05/24 09:21:52;;;;;;;17.73;4.18;;;14.80;47.40;;;;;;4984987;28;20054;-37
2023/05/24 09:24:19;;;;;;;20.73;5.25;;;14.90;47.20;;;;;;4984939;28;20057;-39
2023/05/24 09:26:49;;;;;;;14.93;3.95;;;14.80;46.90;;;;;;4984947;28;20050;-36
2023/05/24 09:29:16;;;;;;;17.20;4.35;;;14.90;46.60;;;;;;4985403;28;20482;-38
2023/05/24 09:31:44;;;;;;;12.68;3.67;;;14.90;46.40;;;;;;4982487;28;20066;-37
2023/05/24 09:34:15;;;;;;;17.25;3.90;;;14.90;46.70;;;;;;4984696;28;20490;-36
2023/05/24 09:36:42;;;;;;;18.73;4.30;;;15.00;47.00;;;;;;4987231;28;20299;-36
2023/05/24 09:39:11;;;;;;;22.98;4.10;;;15.00;47.50;;;;;;4985044;28;20046;-37
2023/05/24 09:41:39;;;;;;;22.33;5.50;;;15.00;47.10;;;;;;4984279;28;20058;-36
2023/05/24 09:44:06;;;;;;;17.13;4.15;;;15.10;46.70;;;;;;4985549;28;20058;-36
2023/05/24 09:46:37;;;;;;;22.40;4.45;;;15.10;47.00;;;;;;4983735;28;20054;-37
2023/05/24 09:49:05;;;;;;;16.90;4.00;;;15.10;46.40;;;;;;4984262;28;20042;-37
2023/05/24 09:51:36;;;;;;;16.67;4.97;;;15.10;46.50;;;;;;4984484;28;20526;-37
2023/05/24 09:54:05;;;;;;;25.77;4.50;;;15.10;46.60;;;;;;4985057;28;20054;-35
2023/05/24 09:56:34;;;;;;;20.08;4.20;;;15.20;45.90;;;;;;4983737;28;20059;-38
2023/05/24 09:59:07;;;;;;;21.60;4.80;;;15.20;46.50;;;;;;4984687;28;20417;-38
2023/05/24 10:01:35;;;;;;;17.75;4.05;;;15.20;46.20;;;;;;4983335;28;20065;-35
2023/05/24 10:04:05;;;;;;;18.05;4.55;;;15.20;46.20;;;;;;4983450;28;20626;-39
2023/05/24 10:06:36;;;;;;;20.85;4.40;;;15.30;46.60;;;;;;4984796;28;20062;-36
2023/05/24 10:09:05;;;;;;;20.08;3.90;;;15.30;46.30;;;;;;4984090;28;20054;-38
2023/05/24 10:11:36;;;;;;;17.95;4.18;;;15.30;45.90;;;;;;4983537;28;20057;-36
2023/05/24 10:14:04;;;;;;;15.32;4.28;;;15.30;45.90;;;;;;4983086;28;20601;-39
2023/05/24 10:16:32;;;;;;;25.10;4.47;;;15.30;46.40;;;;;;4983457;28;20356;-37
2023/05/24 10:18:59;;;;;;;17.55;4.05;;;15.30;46.60;;;;;;4984134;28;20054;-36
2023/05/24 10:21:31;;;;;;;15.35;4.10;;;15.30;46.60;;;;;;4985568;28;20054;-36
2023/05/24 10:24:02;;;;;;;18.70;4.30;;;15.40;46.50;;;;;;4984130;28;20064;-41
2023/05/24 10:26:32;;;;;;;14.00;3.90;;;15.50;45.60;;;;;;4985317;28;20061;-36
2023/05/24 10:29:07;;;;;;;17.50;4.10;;;15.50;45.50;;;;;;4984438;28;20043;-36
2023/05/24 10:31:39;;;;;;;14.70;4.05;;;15.50;45.70;;;;;;4982892;28;20065;-39
2023/05/24 10:34:07;;;;;;;14.13;4.30;;;15.60;45.80;;;;;;4985099;28;20391;-38
2023/05/24 10:36:35;;;;;;;12.98;3.80;;;15.60;45.90;;;;;;4984166;28;20085;-38
2023/05/24 10:39:03;;;;;;;15.02;4.18;;;15.60;45.50;;;;;;4984111;28;20046;-38
2023/05/24 10:41:39;;;;;;;18.30;4.30;;;15.60;44.50;;;;;;4984591;28;20046;-37
2023/05/24 10:44:12;;;;;;;17.48;3.72;;;15.60;44.30;;;;;;4983795;28;20054;-39
2023/05/24 10:47:09;;;;;;;16.95;4.05;;;15.60;44.30;;;;;;4982207;28;20506;-36
2023/05/24 10:49:37;;;;;;;20.17;4.25;;;15.60;45.20;;;;;;4984799;28;20072;-37
2023/05/24 10:52:08;;;;;;;20.50;4.25;;;15.60;45.30;;;;;;4982936;28;20061;-36
2023/05/24 10:54:37;;;;;;;15.25;4.00;;;15.60;44.30;;;;;;4983719;28;20502;-37
2023/05/24 10:57:06;;;;;;;18.95;4.45;;;15.60;44.50;;;;;;4984148;28;20057;-36
2023/05/24 10:59:38;;;;;;;22.50;5.07;;;15.60;44.30;;;;;;4984612;28;20058;-39
2023/05/24 11:02:12;;;;;;;20.13;3.97;;;15.60;44.80;;;;;;4983112;28;20050;-35
2023/05/24 11:04:42;;;;;;;14.18;3.97;;;15.50;45.00;;;;;;4982197;28;20061;-36
2023/05/24 11:07:10;;;;;;;19.50;4.70;;;15.50;45.00;;;;;;4984913;28;20061;-35
2023/05/24 11:09:44;;;;;;;13.93;4.20;;;15.50;44.40;;;;;;4982566;28;20050;-39
2023/05/24 11:12:16;;;;;;;25.13;5.15;;;15.60;45.10;;;;;;4983865;28;20494;-36
2023/05/24 11:14:49;;;;;;;14.95;3.95;;;15.60;44.80;;;;;;4985113;28;20058;-36
2023/05/24 11:17:16;;;;;;;11.77;3.63;;;15.60;44.80;;;;;;4983954;28;20061;-36
2023/05/24 11:19:47;;;;;;;16.08;4.00;;;15.60;45.20;;;;;;4983648;28;20054;-39
2023/05/24 11:22:15;;;;;;;16.50;4.25;;;15.60;44.60;;;;;;4984302;28;20066;-35
2023/05/24 11:24:42;;;;;;;21.58;5.13;;;15.70;44.80;;;;;;4983907;28;20062;-36
2023/05/24 11:27:12;;;;;;;17.88;4.43;;;15.70;44.10;;;;;;4983339;28;20050;-38
2023/05/24 11:29:43;;;;;;;16.90;3.90;;;15.70;44.10;;;;;;4983617;28;20053;-36
2023/05/24 11:32:15;;;;;;;13.10;4.10;;;15.70;44.70;;;;;;4983893;28;20054;-36
2023/05/24 11:34:44;;;;;;;14.70;3.83;;;15.80;45.30;;;;;;4983438;28;20076;-35
2023/05/24 11:37:12;;;;;;;19.20;3.50;;;15.90;45.20;;;;;;4984386;28;20050;-39
2023/05/24 11:39:40;;;;;;;21.92;4.20;;;16.00;44.40;;;;;;4984090;28;20054;-37
2023/05/24 11:42:08;;;;;;;18.02;3.90;;;16.00;43.80;;;;;;4982276;28;20054;-36
2023/05/24 11:44:37;;;;;;;12.88;3.75;;;16.00;43.50;;;;;;4982370;28;20061;-37
2023/05/24 11:47:06;;;;;;;21.70;5.25;;;16.10;43.90;;;;;;4981493;28;20062;-36
2023/05/24 11:49:35;;;;;;;19.55;4.32;;;16.10;43.70;;;;;;4981807;28;20410;-37
2023/05/24 11:52:03;;;;;;;20.20;5.20;;;16.10;43.30;;;;;;4977991;28;20050;-40
2023/05/24 11:54:32;;;;;;;20.10;4.18;;;16.20;44.30;;;;;;4981243;28;20062;-36
2023/05/24 11:57:00;;;;;;;18.55;4.22;;;16.20;44.30;;;;;;4984010;28;20053;-35
2023/05/24 11:59:28;;;;;;;18.05;4.35;;;16.20;44.60;;;;;;4983873;28;20050;-36
2023/05/24 12:02:00;;;;;;;16.70;4.47;;;16.30;43.80;;;;;;4983208;28;20054;-36
2023/05/24 12:04:27;;;;;;;16.73;4.22;;;16.30;43.20;;;;;;4983269;28;20066;-36
2023/05/24 12:06:56;;;;;;;18.23;4.45;;;16.30;43.40;;;;;;4983100;28;20430;-36
2023/05/24 12:09:24;;;;;;;17.30;4.18;;;16.30;43.60;;;;;;4984129;28;20371;-36
2023/05/24 12:11:52;;;;;;;17.63;4.20;;;16.30;43.20;;;;;;4982985;28;20054;-37
2023/05/24 12:14:22;;;;;;;19.08;3.78;;;16.20;43.10;;;;;;4983362;28;20413;-36
2023/05/24 12:16:50;;;;;;;15.10;3.95;;;16.20;43.20;;;;;;4983304;28;20050;-37
2023/05/24 12:19:18;;;;;;;14.50;4.38;;;16.10;43.20;;;;;;4982507;28;20046;-39
2023/05/24 12:21:48;;;;;;;18.25;4.07;;;16.00;43.50;;;;;;4982999;28;20062;-37
2023/05/24 12:24:18;;;;;;;16.70;4.20;;;15.90;43.70;;;;;;4982586;28;20062;-37
2023/05/24 12:26:48;;;;;;;21.83;4.55;;;15.80;43.80;;;;;;4985053;28;20058;-37
2023/05/24 12:29:15;;;;;;;18.60;4.05;;;15.80;44.00;;;;;;4983351;28;20477;-37
2023/05/24 12:31:43;;;;;;;21.52;4.40;;;15.80;43.80;;;;;;4983365;28;20426;-37
2023/05/24 12:34:15;;;;;;;16.90;4.70;;;15.70;43.80;;;;;;4983006;28;20054;-36
2023/05/24 12:36:43;;;;;;;18.48;4.40;;;15.70;44.10;;;;;;4983988;28;20061;-39
2023/05/24 12:39:22;;;;;;;13.10;3.80;;;15.70;44.20;;;;;;4987866;28;20054;-36
2023/05/24 12:41:53;;;;;;;16.95;3.72;;;15.60;44.20;;;;;;4986993;28;20050;-37
2023/05/24 12:44:25;;;;;;;15.95;4.43;;;15.70;44.80;;;;;;4987247;28;20063;-38
2023/05/24 12:46:53;;;;;;;21.77;4.78;;;15.70;45.00;;;;;;4986513;28;20387;-37
2023/05/24 12:49:20;;;;;;;17.52;4.50;;;15.70;45.10;;;;;;4986062;28;20047;-40